Terminal Aerodrome Forecast
Issued by NWS Green Bay, WI

Home | Current Version | Previous Version | Text Only | Print | Product List | Glossary Off
Versions: 1 2 3 4 5 6 7 8 9 10 11 12 13 14 15 16 17 18 19 20 21 22 23 24

000
FTUS43 KGRB 091700
TAFGRB
TAF
KGRB 091723Z 0918/1018 32009G14KT P6SM VCSH SCT035 BKN060
      TEMPO 0918/0922 4SM -SHRA BKN035
     FM100000 02004KT P6SM SCT060
     FM100300 VRB03KT P6SM SKC
     FM101600 16006KT P6SM SCT040=

USA.gov is the U.S. government's official web portal to all federal, state and local government web resources and services.